createdAt,value
2018-04-29T00:00:38.403Z,3.40
2018-04-29T00:03:06.881Z,5.07
2018-04-29T00:05:35.137Z,3.93
2018-04-29T00:08:03.419Z,4.57
2018-04-29T00:10:31.664Z,3.50
2018-04-29T00:12:59.913Z,5.33
2018-04-29T00:15:28.192Z,5.30
2018-04-29T00:17:57.201Z,3.70
2018-04-29T00:20:25.453Z,4.87
2018-04-29T00:22:54.908Z,4.53
2018-04-29T00:25:23.216Z,5.60
2018-04-29T00:27:51.460Z,5.23
2018-04-29T00:30:19.728Z,5.27
2018-04-29T00:32:48.049Z,4.67
2018-04-29T00:35:16.456Z,4.97
2018-04-29T00:37:45.492Z,4.37
2018-04-29T00:40:13.753Z,5.70
2018-04-29T00:42:42.013Z,7.63
2018-04-29T00:45:10.662Z,4.30
2018-04-29T00:47:38.914Z,4.70
2018-04-29T00:50:07.148Z,4.23
2018-04-29T00:52:36.369Z,5.70
2018-04-29T00:55:04.621Z,4.47
2018-04-29T00:57:33.104Z,4.17
2018-04-29T01:00:03.134Z,4.70
2018-04-29T01:02:31.369Z,4.60
2018-04-29T01:04:59.613Z,5.03
2018-04-29T01:07:28.218Z,6.30
2018-04-29T01:09:56.461Z,4.60
2018-04-29T01:12:24.708Z,5.20
2018-04-29T01:14:53.553Z,4.77
2018-04-29T01:17:21.800Z,5.60
2018-04-29T01:19:50.060Z,5.00
2018-04-29T01:22:18.336Z,4.50
2018-04-29T01:24:46.598Z,5.00
2018-04-29T01:27:14.923Z,5.27
2018-04-29T01:29:43.614Z,4.77
2018-04-29T01:32:11.863Z,4.70
2018-04-29T01:34:40.284Z,5.13
2018-04-29T01:37:08.699Z,5.37
2018-04-29T01:39:36.926Z,4.30
2018-04-29T01:42:05.172Z,4.40
2018-04-29T01:44:33.952Z,4.97
2018-04-29T01:47:02.208Z,4.27
2018-04-29T01:49:31.221Z,4.10
2018-04-29T01:52:00.385Z,3.63
2018-04-29T01:54:28.636Z,4.80
2018-04-29T01:56:56.885Z,4.60
2018-04-29T01:59:25.372Z,4.30
2018-04-29T02:01:53.621Z,4.10
2018-04-29T02:04:21.864Z,4.53
2018-04-29T02:06:50.141Z,4.03
2018-04-29T02:09:18.399Z,4.53
2018-04-29T02:11:46.644Z,3.50
2018-04-29T02:14:14.971Z,3.50
2018-04-29T02:16:43.211Z,2.40
2018-04-29T02:19:11.461Z,3.27
2018-04-29T02:21:40.496Z,2.43
2018-04-29T02:24:08.737Z,2.80
2018-04-29T02:26:36.980Z,3.60
2018-04-29T02:29:05.240Z,3.60
2018-04-29T02:31:33.485Z,3.70
2018-04-29T02:34:02.738Z,4.23
2018-04-29T02:36:31.300Z,3.60
2018-04-29T02:38:59.540Z,4.10
2018-04-29T02:41:28.380Z,4.20
2018-04-29T02:43:56.649Z,3.63
2018-04-29T02:46:24.893Z,4.13
2018-04-29T02:48:53.137Z,4.13
2018-04-29T02:51:21.404Z,4.00
2018-04-29T02:53:49.657Z,3.60
2018-04-29T02:56:17.901Z,3.40
2018-04-29T02:58:46.548Z,3.63
2018-04-29T03:01:15.132Z,3.83
2018-04-29T03:03:45.106Z,3.80
2018-04-29T03:06:13.373Z,3.23
2018-04-29T03:08:42.869Z,3.47
2018-04-29T03:11:11.109Z,3.90
2018-04-29T03:13:41.566Z,3.53
2018-04-29T03:16:09.804Z,3.40
2018-04-29T03:18:38.056Z,4.10
2018-04-29T03:21:06.515Z,4.60
2018-04-29T03:23:34.768Z,4.10
2018-04-29T03:26:03.022Z,4.00
2018-04-29T03:28:31.301Z,5.37
2018-04-29T03:31:00.322Z,5.33
2018-04-29T03:33:28.563Z,4.40
2018-04-29T03:35:56.837Z,4.33
2018-04-29T03:38:25.097Z,3.90
2018-04-29T03:40:53.340Z,5.40
2018-04-29T03:43:24.028Z,4.70
2018-04-29T03:45:53.052Z,3.97
2018-04-29T03:48:21.302Z,3.77
2018-04-29T03:50:49.577Z,3.80
2018-04-29T03:53:17.825Z,3.63
2018-04-29T03:55:46.072Z,3.53
2018-04-29T03:58:26.451Z,3.87
2018-04-29T04:01:06.549Z,3.77
2018-04-29T04:03:44.040Z,3.47
2018-04-29T04:06:12.289Z,3.30
2018-04-29T04:08:40.532Z,3.80
2018-04-29T04:11:08.796Z,4.50
2018-04-29T04:13:37.045Z,5.03
2018-04-29T04:16:05.288Z,5.77
2018-04-29T04:18:34.561Z,6.40
2018-04-29T04:21:02.820Z,7.90
2018-04-29T04:23:31.076Z,8.17
2018-04-29T04:25:59.348Z,9.17
2018-04-29T04:28:28.385Z,9.70
2018-04-29T04:30:56.616Z,9.27
2018-04-29T04:33:24.897Z,10.40
2018-04-29T04:35:53.149Z,10.03
2018-04-29T04:38:21.860Z,10.50
2018-04-29T04:40:51.208Z,11.43
2018-04-29T04:43:19.540Z,8.40
2018-04-29T04:45:48.559Z,8.00
2018-04-29T04:48:16.837Z,9.77
2018-04-29T04:50:45.176Z,8.00
2018-04-29T04:53:13.340Z,6.13
2018-04-29T04:55:41.626Z,7.73
2018-04-29T04:58:09.898Z,6.10
2018-04-29T05:00:38.128Z,5.50
2018-04-29T05:03:06.616Z,5.53
2018-04-29T05:05:35.257Z,3.90
2018-04-29T05:08:05.272Z,4.13
2018-04-29T05:10:34.317Z,5.63
2018-04-29T05:13:02.585Z,4.30
2018-04-29T05:15:30.824Z,4.50
2018-04-29T05:17:59.651Z,9.03
2018-04-29T05:20:27.952Z,8.60
2018-04-29T05:22:56.201Z,6.80
2018-04-29T05:25:25.327Z,8.27
2018-04-29T05:27:53.573Z,5.77
2018-04-29T05:30:21.816Z,9.90
2018-04-29T05:32:50.862Z,6.20
2018-04-29T05:35:19.124Z,4.90
2018-04-29T05:37:47.353Z,5.80
2018-04-29T05:40:15.624Z,4.73
2018-04-29T05:42:43.871Z,5.43
2018-04-29T05:45:13.033Z,5.27
2018-04-29T05:47:41.524Z,5.60
2018-04-29T05:50:10.367Z,5.57
2018-04-29T05:52:38.604Z,5.90
2018-04-29T05:55:06.877Z,5.20
2018-04-29T05:57:35.182Z,5.57
2018-04-29T06:00:03.429Z,5.40
2018-04-29T06:02:31.697Z,5.00
2018-04-29T06:04:59.937Z,6.10
2018-04-29T06:07:28.428Z,5.90
2018-04-29T06:09:58.245Z,5.97
2018-04-29T06:12:26.480Z,5.70
2018-04-29T06:14:54.764Z,5.80
2018-04-29T06:17:23.073Z,5.67
2018-04-29T06:19:51.338Z,5.67
2018-04-29T06:22:20.361Z,5.57
2018-04-29T06:24:49.541Z,5.30
2018-04-29T06:27:18.557Z,5.47
2018-04-29T06:29:46.808Z,5.70
2018-04-29T06:32:15.640Z,6.50
2018-04-29T06:34:43.892Z,6.30
2018-04-29T06:37:12.136Z,6.20
2018-04-29T06:39:40.406Z,6.50
2018-04-29T06:42:08.815Z,5.90
2018-04-29T06:44:37.805Z,5.43
2018-04-29T06:47:06.851Z,6.17
2018-04-29T06:49:35.097Z,5.63
2018-04-29T06:52:03.345Z,6.10
2018-04-29T06:54:31.975Z,5.83
2018-04-29T06:57:00.229Z,5.07
2018-04-29T06:59:28.476Z,5.70
2018-04-29T07:01:56.748Z,4.90
2018-04-29T07:04:24.994Z,4.40
2018-04-29T07:06:54.344Z,5.90
2018-04-29T07:09:22.847Z,5.70
2018-04-29T07:11:51.093Z,4.63
2018-04-29T07:14:19.335Z,5.20
2018-04-29T07:16:48.527Z,5.00
2018-04-29T07:19:16.896Z,5.40
2018-04-29T07:21:45.153Z,5.50
2018-04-29T07:24:13.428Z,6.63
2018-04-29T07:26:42.687Z,6.07
2018-04-29T07:29:11.067Z,6.07
2018-04-29T07:31:39.341Z,6.70
2018-04-29T07:34:08.854Z,5.70
2018-04-29T07:36:37.154Z,6.20
2018-04-29T07:39:06.501Z,5.73
2018-04-29T07:41:34.749Z,5.80
2018-04-29T07:44:03.172Z,6.17
2018-04-29T07:46:31.625Z,5.90
2018-04-29T07:48:59.959Z,5.50
2018-04-29T07:51:28.968Z,5.47
2018-04-29T07:53:58.009Z,6.17
2018-04-29T07:56:26.253Z,5.23
2018-04-29T07:58:54.686Z,5.20
2018-04-29T08:01:23.137Z,4.60
2018-04-29T08:03:51.381Z,5.30
2018-04-29T08:06:19.633Z,5.50
2018-04-29T08:08:47.919Z,6.80
2018-04-29T08:11:17.209Z,6.27
2018-04-29T08:13:45.565Z,5.30
2018-04-29T08:16:13.973Z,5.47
2018-04-29T08:18:42.989Z,5.50
2018-04-29T08:21:11.316Z,5.57
2018-04-29T08:23:39.996Z,5.23
2018-04-29T08:26:08.228Z,5.40
2018-04-29T08:28:36.518Z,5.57
2018-04-29T08:31:04.865Z,6.23
2018-04-29T08:33:33.880Z,5.53
2018-04-29T08:36:02.206Z,5.43
2018-04-29T08:38:30.972Z,5.43
2018-04-29T08:41:00.200Z,4.80
2018-04-29T08:43:28.573Z,5.23
2018-04-29T08:45:57.487Z,5.07
2018-04-29T08:48:26.150Z,5.47
2018-04-29T08:50:54.324Z,7.13
2018-04-29T08:53:23.665Z,4.83
2018-04-29T08:55:52.096Z,5.93
2018-04-29T08:58:20.337Z,5.70
2018-04-29T09:00:48.596Z,5.13
2018-04-29T09:03:16.928Z,5.00
2018-04-29T09:05:45.087Z,4.83
2018-04-29T09:08:13.428Z,4.80
2018-04-29T09:10:41.691Z,5.00
2018-04-29T09:13:11.469Z,5.60
2018-04-29T09:15:40.464Z,4.83
2018-04-29T09:18:09.265Z,5.07
2018-04-29T09:20:37.629Z,5.70
2018-04-29T09:23:06.174Z,6.17
2018-04-29T09:25:34.402Z,4.90
2018-04-29T09:28:02.780Z,4.20
2018-04-29T09:30:31.540Z,5.43
2018-04-29T09:32:59.832Z,5.30
2018-04-29T09:35:28.255Z,5.13
2018-04-29T09:37:56.512Z,5.20
2018-04-29T09:40:25.022Z,5.63
2018-04-29T09:42:54.033Z,5.80
2018-04-29T09:45:25.444Z,5.23
2018-04-29T09:47:53.801Z,5.40
2018-04-29T09:50:22.052Z,6.50
2018-04-29T09:52:50.636Z,5.40
2018-04-29T09:55:19.484Z,6.83
2018-04-29T09:57:47.722Z,5.97
2018-04-29T10:00:15.988Z,5.23
2018-04-29T10:02:47.347Z,5.93
2018-04-29T10:05:16.689Z,5.73
2018-04-29T10:07:44.948Z,5.93
2018-04-29T10:10:13.567Z,5.30
2018-04-29T10:12:42.568Z,5.77
2018-04-29T10:15:11.065Z,5.50
2018-04-29T10:17:39.305Z,5.57
2018-04-29T10:20:08.320Z,5.90
2018-04-29T10:22:36.631Z,5.70
2018-04-29T10:25:05.068Z,5.17
2018-04-29T10:27:34.074Z,5.67
2018-04-29T10:30:02.360Z,6.30
2018-04-29T10:32:30.658Z,5.50
2018-04-29T10:34:58.845Z,6.50
2018-04-29T10:37:27.297Z,6.30
2018-04-29T10:39:55.541Z,6.17
2018-04-29T10:42:23.808Z,6.60
2018-04-29T10:44:52.078Z,6.30
2018-04-29T10:47:21.085Z,6.33
2018-04-29T10:49:50.107Z,6.33
2018-04-29T10:52:18.420Z,5.80
2018-04-29T10:54:46.661Z,6.70
2018-04-29T10:57:14.920Z,5.10
2018-04-29T10:59:43.636Z,5.70
2018-04-29T11:02:11.937Z,5.40
2018-04-29T11:04:40.186Z,5.37
2018-04-29T11:07:09.506Z,5.60
2018-04-29T11:09:37.728Z,5.83
2018-04-29T11:12:06.740Z,6.13
2018-04-29T11:14:35.016Z,5.63
2018-04-29T11:17:03.484Z,5.90
2018-04-29T11:19:32.503Z,5.50
2018-04-29T11:22:01.202Z,5.60
2018-04-29T11:24:29.440Z,5.43
2018-04-29T11:26:57.688Z,5.70
2018-04-29T11:29:25.975Z,5.80
2018-04-29T11:31:54.979Z,5.63
2018-04-29T11:34:24.040Z,5.70
2018-04-29T11:36:52.308Z,5.10
2018-04-29T11:39:20.566Z,5.87
2018-04-29T11:41:48.807Z,5.63
2018-04-29T11:44:18.149Z,4.43
2018-04-29T11:46:46.396Z,4.20
2018-04-29T11:49:14.660Z,4.90
2018-04-29T11:51:42.925Z,5.50
2018-04-29T11:54:11.937Z,5.30
2018-04-29T11:56:40.180Z,5.00
2018-04-29T11:59:08.446Z,4.80
2018-04-29T12:01:36.688Z,5.20
2018-04-29T12:04:04.929Z,4.30
2018-04-29T12:06:33.568Z,5.17
2018-04-29T12:09:01.804Z,4.63
2018-04-29T12:11:30.057Z,4.53
2018-04-29T12:13:58.329Z,4.03
2018-04-29T12:16:27.035Z,5.03
2018-04-29T12:18:56.945Z,4.40
2018-04-29T12:21:26.557Z,4.20
2018-04-29T12:23:55.576Z,4.83
2018-04-29T12:26:23.893Z,4.40
2018-04-29T12:28:52.651Z,4.50
2018-04-29T12:31:20.896Z,4.30
2018-04-29T12:33:49.141Z,4.17
2018-04-29T12:36:17.413Z,5.63
2018-04-29T12:38:45.692Z,4.30
2018-04-29T12:41:14.412Z,4.10
2018-04-29T12:43:42.780Z,4.30
2018-04-29T12:46:11.029Z,4.00
2018-04-29T12:48:39.268Z,4.20
2018-04-29T12:51:07.725Z,4.40
2018-04-29T12:53:36.736Z,3.50
2018-04-29T12:56:04.985Z,3.37
2018-04-29T12:58:33.261Z,3.50
2018-04-29T13:01:01.517Z,3.87
2018-04-29T13:03:29.760Z,4.10
2018-04-29T13:05:58.028Z,3.73
2018-04-29T13:08:26.385Z,4.70
2018-04-29T13:10:54.632Z,4.10
2018-04-29T13:13:22.967Z,4.70
2018-04-29T13:15:51.207Z,4.47
2018-04-29T13:18:20.225Z,3.60
2018-04-29T13:20:48.497Z,3.87
2018-04-29T13:23:16.748Z,3.50
2018-04-29T13:25:45.005Z,4.03
2018-04-29T13:28:13.348Z,3.60
2018-04-29T13:30:41.520Z,3.80
2018-04-29T13:33:09.765Z,3.60
2018-04-29T13:35:38.663Z,3.03
2018-04-29T13:38:07.084Z,3.80
2018-04-29T13:40:35.668Z,3.53
2018-04-29T13:43:03.916Z,3.90
2018-04-29T13:45:32.328Z,3.30
2018-04-29T13:48:00.573Z,3.70
2018-04-29T13:50:28.948Z,3.20
2018-04-29T13:52:57.197Z,3.00
2018-04-29T13:55:26.216Z,2.97
2018-04-29T13:57:54.928Z,2.80
2018-04-29T14:00:23.173Z,3.13
2018-04-29T14:02:51.412Z,2.87
2018-04-29T14:05:19.684Z,2.60
2018-04-29T14:07:47.935Z,2.63
2018-04-29T14:10:16.201Z,2.80
2018-04-29T14:12:45.256Z,2.80
2018-04-29T14:15:13.608Z,2.60
2018-04-29T14:17:41.858Z,2.10
2018-04-29T14:20:10.336Z,2.70
2018-04-29T14:22:38.816Z,3.10
2018-04-29T14:25:07.064Z,2.40
2018-04-29T14:27:35.324Z,2.70
2018-04-29T14:30:03.586Z,2.63
2018-04-29T14:32:31.840Z,2.33
2018-04-29T14:35:00.186Z,2.50
2018-04-29T14:37:28.603Z,2.33
2018-04-29T14:39:56.997Z,2.27
2018-04-29T14:42:25.484Z,2.57
2018-04-29T14:44:57.737Z,2.53
2018-04-29T14:47:26.029Z,2.50
2018-04-29T14:49:54.279Z,2.60
2018-04-29T14:52:22.949Z,2.43
2018-04-29T14:54:51.208Z,2.23
2018-04-29T14:57:19.640Z,2.50
2018-04-29T14:59:47.893Z,2.63
2018-04-29T15:02:16.279Z,2.77
2018-04-29T15:04:44.525Z,2.50
2018-04-29T15:07:12.779Z,2.57
2018-04-29T15:09:41.255Z,2.90
2018-04-29T15:12:10.262Z,2.53
2018-04-29T15:14:39.287Z,2.57
2018-04-29T15:17:07.604Z,2.70
2018-04-29T15:19:54.477Z,2.87
2018-04-29T15:22:22.819Z,2.63
2018-04-29T15:24:53.020Z,2.80
2018-04-29T15:27:21.486Z,2.60
2018-04-29T15:29:49.743Z,2.47
2018-04-29T15:32:18.331Z,2.50
2018-04-29T15:34:46.889Z,2.50
2018-04-29T15:37:15.224Z,2.27
2018-04-29T15:39:44.245Z,3.20
2018-04-29T15:42:12.500Z,2.70
2018-04-29T15:44:41.353Z,2.17
2018-04-29T15:47:09.576Z,2.83
2018-04-29T15:49:37.918Z,2.90
2018-04-29T15:52:06.936Z,2.47
2018-04-29T15:54:35.391Z,2.57
2018-04-29T15:57:03.773Z,2.50
2018-04-29T15:59:32.036Z,2.30
2018-04-29T16:02:00.725Z,2.50
2018-04-29T16:04:28.950Z,2.40
2018-04-29T16:06:58.405Z,2.40
2018-04-29T16:09:26.897Z,2.47
2018-04-29T16:11:55.145Z,2.67
2018-04-29T16:14:24.602Z,2.50
2018-04-29T16:16:54.548Z,2.73
2018-04-29T16:19:22.797Z,3.17
2018-04-29T16:21:51.108Z,3.07
2018-04-29T16:24:19.929Z,2.30
2018-04-29T16:26:48.172Z,3.10
2018-04-29T16:29:16.764Z,3.40
2018-04-29T16:31:45.006Z,2.60
2018-04-29T16:34:13.646Z,3.43
2018-04-29T16:36:41.908Z,3.40
2018-04-29T16:39:10.404Z,2.63
2018-04-29T16:41:38.629Z,2.80
2018-04-29T16:44:07.661Z,2.90
2018-04-29T16:46:35.968Z,19.40
2018-04-29T16:49:04.956Z,3.00
2018-04-29T16:51:33.647Z,3.13
2018-04-29T16:54:02.012Z,3.37
2018-04-29T16:56:30.402Z,2.60
2018-04-29T16:58:58.812Z,3.10
2018-04-29T17:01:28.679Z,2.73
2018-04-29T17:03:56.932Z,3.00
2018-04-29T17:06:25.339Z,3.20
2018-04-29T17:08:53.565Z,3.03
2018-04-29T17:11:22.583Z,2.97
2018-04-29T17:13:50.977Z,3.13
2018-04-29T17:16:19.224Z,4.13
2018-04-29T17:18:47.843Z,2.57
2018-04-29T17:21:16.099Z,2.63
2018-04-29T17:23:44.350Z,3.07
2018-04-29T17:26:12.855Z,3.80
2018-04-29T17:28:41.246Z,3.03
2018-04-29T17:31:09.596Z,4.30
2018-04-29T17:33:37.920Z,3.53
2018-04-29T17:36:07.000Z,3.63
2018-04-29T17:38:35.360Z,4.00
2018-04-29T17:41:03.613Z,4.60
2018-04-29T17:43:31.893Z,3.93
2018-04-29T17:46:01.439Z,3.23
2018-04-29T17:48:29.750Z,3.50
2018-04-29T17:50:58.144Z,3.90
2018-04-29T17:53:26.383Z,4.20
2018-04-29T17:55:54.628Z,3.87
2018-04-29T17:58:23.343Z,4.20
2018-04-29T18:00:51.592Z,3.53
2018-04-29T18:03:19.843Z,3.87
2018-04-29T18:05:48.144Z,3.53
2018-04-29T18:08:16.487Z,4.20
2018-04-29T18:10:44.860Z,4.40
2018-04-29T18:13:13.128Z,3.90
2018-04-29T18:15:41.496Z,3.70
2018-04-29T18:18:09.721Z,3.60
2018-04-29T18:20:39.296Z,3.97
2018-04-29T18:23:07.545Z,4.53
2018-04-29T18:25:36.307Z,3.97
2018-04-29T18:28:04.585Z,4.17
2018-04-29T18:30:32.833Z,3.70
2018-04-29T18:33:01.845Z,3.80
2018-04-29T18:35:30.193Z,3.97
2018-04-29T18:37:58.440Z,3.50
2018-04-29T18:40:26.682Z,3.93
2018-04-29T18:42:56.946Z,3.37
2018-04-29T18:45:25.183Z,4.90
2018-04-29T18:47:53.444Z,4.83
2018-04-29T18:50:21.744Z,4.00
2018-04-29T18:52:50.977Z,3.50
2018-04-29T18:55:19.352Z,3.80
2018-04-29T18:57:47.772Z,3.70
2018-04-29T19:00:16.779Z,3.87
2018-04-29T19:02:45.308Z,4.17
2018-04-29T19:05:13.878Z,4.90
2018-04-29T19:07:42.137Z,4.57
2018-04-29T19:10:10.385Z,4.07
2018-04-29T19:12:38.659Z,4.70
2018-04-29T19:15:07.736Z,4.67
2018-04-29T19:17:36.308Z,4.07
2018-04-29T19:20:04.628Z,4.53
2018-04-29T19:22:32.863Z,4.53
2018-04-29T19:25:01.101Z,3.70
2018-04-29T19:27:29.958Z,4.73
2018-04-29T19:29:58.977Z,4.77
2018-04-29T19:32:27.223Z,4.30
2018-04-29T19:34:56.256Z,4.87
2018-04-29T19:37:24.504Z,4.97
2018-04-29T19:39:53.027Z,4.70
2018-04-29T19:42:21.293Z,4.60
2018-04-29T19:44:49.545Z,4.97
2018-04-29T19:47:17.973Z,5.80
2018-04-29T19:49:46.569Z,5.50
2018-04-29T19:52:14.793Z,4.67
2018-04-29T19:54:43.305Z,6.03
2018-04-29T19:57:12.007Z,5.20
2018-04-29T19:59:40.248Z,4.97
2018-04-29T20:02:08.512Z,4.50
2018-04-29T20:04:36.780Z,5.87
2018-04-29T20:07:05.798Z,4.90
2018-04-29T20:09:34.307Z,4.93
2018-04-29T20:12:02.872Z,5.17
2018-04-29T20:14:31.141Z,5.03
2018-04-29T20:16:59.385Z,5.27
2018-04-29T20:19:28.428Z,5.77
2018-04-29T20:21:56.672Z,5.30
2018-04-29T20:24:25.002Z,5.27
2018-04-29T20:26:53.281Z,4.97
2018-04-29T20:29:21.804Z,4.97
2018-04-29T20:31:50.817Z,5.20
2018-04-29T20:34:19.907Z,5.13
2018-04-29T20:36:48.165Z,5.90
2018-04-29T20:39:17.176Z,5.03
2018-04-29T20:41:45.457Z,5.20
2018-04-29T20:44:13.712Z,4.60
2018-04-29T20:46:42.804Z,5.00
2018-04-29T20:49:11.000Z,6.40
2018-04-29T20:51:39.255Z,4.70
2018-04-29T20:54:07.505Z,5.63
2018-04-29T20:56:37.076Z,5.20
2018-04-29T20:59:05.336Z,5.13
2018-04-29T21:01:33.593Z,5.07
2018-04-29T21:04:02.744Z,4.80
2018-04-29T21:06:31.297Z,5.40
2018-04-29T21:08:59.549Z,4.90
2018-04-29T21:11:28.589Z,5.00
2018-04-29T21:13:56.845Z,4.77
2018-04-29T21:16:25.088Z,5.67
2018-04-29T21:18:53.720Z,5.07
2018-04-29T21:21:21.980Z,5.40
2018-04-29T21:23:50.232Z,5.00
2018-04-29T21:26:19.932Z,4.70
2018-04-29T21:28:48.188Z,4.97
2018-04-29T21:31:16.908Z,4.47
2018-04-29T21:33:45.176Z,9.23
2018-04-29T21:36:14.201Z,5.60
2018-04-29T21:38:42.556Z,5.87
2018-04-29T21:41:11.908Z,5.87
2018-04-29T21:43:40.161Z,5.00
2018-04-29T21:46:08.412Z,4.90
2018-04-29T21:48:37.458Z,4.47
2018-04-29T21:51:07.019Z,5.07
2018-04-29T21:53:35.251Z,4.60
2018-04-29T21:56:03.522Z,5.30
2018-04-29T21:58:32.036Z,5.47
2018-04-29T22:01:01.065Z,5.70
2018-04-29T22:03:29.772Z,4.30
2018-04-29T22:05:58.013Z,4.50
2018-04-29T22:08:26.260Z,5.23
2018-04-29T22:10:54.524Z,5.40
2018-04-29T22:13:22.788Z,5.40
2018-04-29T22:15:52.477Z,4.57
2018-04-29T22:18:20.744Z,4.30
2018-04-29T22:20:48.999Z,4.80
2018-04-29T22:23:18.635Z,5.40
2018-04-29T22:25:47.090Z,4.70
2018-04-29T22:28:16.107Z,5.70
2018-04-29T22:30:44.357Z,4.93
2018-04-29T22:33:13.732Z,7.23
2018-04-29T22:35:41.980Z,6.60
2018-04-29T22:38:10.241Z,6.70
2018-04-29T22:40:38.515Z,7.47
2018-04-29T22:43:06.764Z,7.63
2018-04-29T22:45:35.017Z,6.27
2018-04-29T22:48:03.360Z,6.27
2018-04-29T22:50:31.901Z,7.30
2018-04-29T22:53:00.144Z,5.00
2018-04-29T22:55:28.553Z,5.57
2018-04-29T22:57:56.784Z,6.43
2018-04-29T23:00:25.029Z,6.67
2018-04-29T23:02:53.308Z,5.80
2018-04-29T23:05:21.664Z,6.07
2018-04-29T23:07:51.164Z,6.87
2018-04-29T23:10:20.008Z,5.07
2018-04-29T23:12:49.329Z,5.20
2018-04-29T23:15:17.591Z,6.20
2018-04-29T23:17:46.016Z,5.97
2018-04-29T23:20:15.037Z,5.60
2018-04-29T23:22:43.293Z,5.50
2018-04-29T23:25:11.559Z,6.40
2018-04-29T23:27:39.816Z,5.90
2018-04-29T23:30:08.061Z,5.43
2018-04-29T23:32:36.717Z,6.70
2018-04-29T23:35:05.294Z,5.37
2018-04-29T23:37:34.315Z,7.00
2018-04-29T23:40:02.581Z,5.27
2018-04-29T23:42:30.837Z,5.00
2018-04-29T23:44:59.436Z,5.10
2018-04-29T23:47:27.778Z,6.50
2018-04-29T23:49:55.948Z,5.40
2018-04-29T23:52:24.214Z,4.80
2018-04-29T23:54:52.534Z,6.00
2018-04-29T23:57:20.775Z,6.47
2018-04-29T23:59:49.792Z,5.30
